sensor_id;sensor_type;location;lat;lon;timestamp;P1;durP1;ratioP1;P2;durP2;ratioP2
71726;SDS011;65960;43.502;3.712;2022-12-29T00:00:51;18.77;;;10.98;;
71726;SDS011;65960;43.502;3.712;2022-12-29T00:03:17;19.02;;;11.07;;
71726;SDS011;65960;43.502;3.712;2022-12-29T00:05:42;23.30;;;11.85;;
71726;SDS011;65960;43.502;3.712;2022-12-29T00:08:08;19.63;;;12.57;;
71726;SDS011;65960;43.502;3.712;2022-12-29T00:10:34;18.67;;;11.75;;
71726;SDS011;65960;43.502;3.712;2022-12-29T00:12:59;20.48;;;11.98;;
71726;SDS011;65960;43.502;3.712;2022-12-29T00:15:44;17.30;;;10.60;;
71726;SDS011;65960;43.502;3.712;2022-12-29T00:18:09;18.58;;;10.63;;
71726;SDS011;65960;43.502;3.712;2022-12-29T00:20:36;21.05;;;14.40;;
71726;SDS011;65960;43.502;3.712;2022-12-29T00:23:21;21.25;;;13.68;;
71726;SDS011;65960;43.502;3.712;2022-12-29T00:26:09;20.75;;;12.05;;
71726;SDS011;65960;43.502;3.712;2022-12-29T00:28:58;21.50;;;11.53;;
71726;SDS011;65960;43.502;3.712;2022-12-29T00:31:42;23.15;;;11.07;;
71726;SDS011;65960;43.502;3.712;2022-12-29T00:34:26;16.83;;;10.93;;
71726;SDS011;65960;43.502;3.712;2022-12-29T00:39:36;18.25;;;11.88;;
71726;SDS011;65960;43.502;3.712;2022-12-29T00:42:20;21.77;;;10.70;;
71726;SDS011;65960;43.502;3.712;2022-12-29T00:45:05;21.05;;;11.55;;
71726;SDS011;65960;43.502;3.712;2022-12-29T00:47:31;16.42;;;10.95;;
71726;SDS011;65960;43.502;3.712;2022-12-29T00:49:57;19.48;;;11.70;;
71726;SDS011;65960;43.502;3.712;2022-12-29T00:52:23;17.52;;;11.43;;
71726;SDS011;65960;43.502;3.712;2022-12-29T00:54:49;19.42;;;11.57;;
71726;SDS011;65960;43.502;3.712;2022-12-29T00:57:15;18.40;;;12.02;;
71726;SDS011;65960;43.502;3.712;2022-12-29T00:59:41;18.42;;;12.35;;
71726;SDS011;65960;43.502;3.712;2022-12-29T01:02:08;22.98;;;13.45;;
71726;SDS011;65960;43.502;3.712;2022-12-29T01:04:34;21.25;;;13.23;;
71726;SDS011;65960;43.502;3.712;2022-12-29T01:07:00;20.35;;;14.13;;
71726;SDS011;65960;43.502;3.712;2022-12-29T01:09:26;19.08;;;12.82;;
71726;SDS011;65960;43.502;3.712;2022-12-29T01:12:11;20.48;;;15.10;;
71726;SDS011;65960;43.502;3.712;2022-12-29T01:14:37;20.58;;;12.90;;
71726;SDS011;65960;43.502;3.712;2022-12-29T01:17:04;19.23;;;11.30;;
71726;SDS011;65960;43.502;3.712;2022-12-29T01:19:30;21.30;;;12.52;;
71726;SDS011;65960;43.502;3.712;2022-12-29T01:21:56;17.70;;;13.02;;
71726;SDS011;65960;43.502;3.712;2022-12-29T01:24:23;19.52;;;11.90;;
71726;SDS011;65960;43.502;3.712;2022-12-29T01:26:51;18.45;;;12.18;;
71726;SDS011;65960;43.502;3.712;2022-12-29T01:29:19;16.90;;;12.70;;
71726;SDS011;65960;43.502;3.712;2022-12-29T01:31:45;18.58;;;12.25;;
71726;SDS011;65960;43.502;3.712;2022-12-29T01:34:11;17.10;;;11.75;;
71726;SDS011;65960;43.502;3.712;2022-12-29T01:36:38;17.08;;;11.73;;
71726;SDS011;65960;43.502;3.712;2022-12-29T01:39:04;19.02;;;12.25;;
71726;SDS011;65960;43.502;3.712;2022-12-29T01:41:30;20.17;;;12.40;;
71726;SDS011;65960;43.502;3.712;2022-12-29T01:43:57;21.50;;;12.27;;
71726;SDS011;65960;43.502;3.712;2022-12-29T01:48:59;19.85;;;11.73;;
71726;SDS011;65960;43.502;3.712;2022-12-29T01:51:28;18.15;;;11.25;;
71726;SDS011;65960;43.502;3.712;2022-12-29T01:53:55;17.13;;;10.82;;
71726;SDS011;65960;43.502;3.712;2022-12-29T01:56:23;19.17;;;12.35;;
71726;SDS011;65960;43.502;3.712;2022-12-29T01:58:52;17.83;;;11.68;;
71726;SDS011;65960;43.502;3.712;2022-12-29T02:01:20;21.20;;;12.60;;
71726;SDS011;65960;43.502;3.712;2022-12-29T02:03:47;19.35;;;12.57;;
71726;SDS011;65960;43.502;3.712;2022-12-29T02:06:15;20.10;;;13.90;;
71726;SDS011;65960;43.502;3.712;2022-12-29T02:08:43;22.02;;;13.18;;
71726;SDS011;65960;43.502;3.712;2022-12-29T02:11:11;21.98;;;14.43;;
71726;SDS011;65960;43.502;3.712;2022-12-29T02:13:38;23.10;;;13.73;;
71726;SDS011;65960;43.502;3.712;2022-12-29T02:16:16;23.02;;;16.35;;
71726;SDS011;65960;43.502;3.712;2022-12-29T02:26:58;22.25;;;12.10;;
71726;SDS011;65960;43.502;3.712;2022-12-29T02:31:57;20.08;;;12.38;;
71726;SDS011;65960;43.502;3.712;2022-12-29T02:37:53;22.58;;;13.10;;
71726;SDS011;65960;43.502;3.712;2022-12-29T02:43:03;16.70;;;12.45;;
71726;SDS011;65960;43.502;3.712;2022-12-29T02:48:39;19.70;;;12.32;;
71726;SDS011;65960;43.502;3.712;2022-12-29T02:51:20;19.00;;;12.68;;
71726;SDS011;65960;43.502;3.712;2022-12-29T02:53:52;19.40;;;11.50;;
71726;SDS011;65960;43.502;3.712;2022-12-29T02:56:37;20.92;;;13.88;;
71726;SDS011;65960;43.502;3.712;2022-12-29T02:59:03;22.27;;;12.80;;
71726;SDS011;65960;43.502;3.712;2022-12-29T03:07:21;16.77;;;10.65;;
71726;SDS011;65960;43.502;3.712;2022-12-29T03:09:58;22.65;;;12.40;;
71726;SDS011;65960;43.502;3.712;2022-12-29T03:15:18;18.00;;;11.88;;
71726;SDS011;65960;43.502;3.712;2022-12-29T03:18:06;17.65;;;12.20;;
71726;SDS011;65960;43.502;3.712;2022-12-29T03:20:41;20.38;;;12.70;;
71726;SDS011;65960;43.502;3.712;2022-12-29T03:23:08;18.48;;;12.20;;
71726;SDS011;65960;43.502;3.712;2022-12-29T03:25:37;21.42;;;13.30;;
71726;SDS011;65960;43.502;3.712;2022-12-29T03:28:06;25.00;;;13.45;;
71726;SDS011;65960;43.502;3.712;2022-12-29T03:30:33;21.98;;;13.27;;
71726;SDS011;65960;43.502;3.712;2022-12-29T03:33:01;19.08;;;12.50;;
71726;SDS011;65960;43.502;3.712;2022-12-29T03:35:31;21.63;;;13.00;;
71726;SDS011;65960;43.502;3.712;2022-12-29T03:40:29;19.17;;;12.15;;
71726;SDS011;65960;43.502;3.712;2022-12-29T03:42:57;15.75;;;12.32;;
71726;SDS011;65960;43.502;3.712;2022-12-29T03:45:24;24.02;;;12.35;;
71726;SDS011;65960;43.502;3.712;2022-12-29T03:47:51;18.73;;;11.63;;
71726;SDS011;65960;43.502;3.712;2022-12-29T03:50:17;19.45;;;11.85;;
71726;SDS011;65960;43.502;3.712;2022-12-29T03:52:43;16.52;;;11.50;;
71726;SDS011;65960;43.502;3.712;2022-12-29T03:55:09;19.08;;;11.27;;
71726;SDS011;65960;43.502;3.712;2022-12-29T03:57:35;17.17;;;10.63;;
71726;SDS011;65960;43.502;3.712;2022-12-29T04:00:03;19.38;;;11.70;;
71726;SDS011;65960;43.502;3.712;2022-12-29T04:02:29;19.60;;;11.55;;
71726;SDS011;65960;43.502;3.712;2022-12-29T04:04:55;15.05;;;10.55;;
71726;SDS011;65960;43.502;3.712;2022-12-29T04:07:21;15.07;;;11.25;;
71726;SDS011;65960;43.502;3.712;2022-12-29T04:09:47;17.17;;;10.82;;
71726;SDS011;65960;43.502;3.712;2022-12-29T04:12:13;18.35;;;10.93;;
71726;SDS011;65960;43.502;3.712;2022-12-29T04:14:39;17.65;;;10.77;;
71726;SDS011;65960;43.502;3.712;2022-12-29T04:17:05;15.60;;;10.27;;
71726;SDS011;65960;43.502;3.712;2022-12-29T04:19:32;16.92;;;10.40;;
71726;SDS011;65960;43.502;3.712;2022-12-29T04:21:58;16.30;;;10.63;;
71726;SDS011;65960;43.502;3.712;2022-12-29T04:24:24;20.70;;;10.80;;
71726;SDS011;65960;43.502;3.712;2022-12-29T04:26:50;19.20;;;12.27;;
71726;SDS011;65960;43.502;3.712;2022-12-29T04:29:16;24.38;;;12.40;;
71726;SDS011;65960;43.502;3.712;2022-12-29T04:31:42;19.15;;;12.32;;
71726;SDS011;65960;43.502;3.712;2022-12-29T04:34:08;17.77;;;10.45;;
71726;SDS011;65960;43.502;3.712;2022-12-29T04:36:34;18.05;;;10.23;;
71726;SDS011;65960;43.502;3.712;2022-12-29T04:39:00;18.60;;;10.88;;
71726;SDS011;65960;43.502;3.712;2022-12-29T04:41:26;18.70;;;10.18;;
71726;SDS011;65960;43.502;3.712;2022-12-29T04:43:53;19.13;;;11.38;;
71726;SDS011;65960;43.502;3.712;2022-12-29T04:46:19;16.08;;;10.70;;
71726;SDS011;65960;43.502;3.712;2022-12-29T04:48:45;16.60;;;10.75;;
71726;SDS011;65960;43.502;3.712;2022-12-29T04:51:11;16.67;;;11.07;;
71726;SDS011;65960;43.502;3.712;2022-12-29T04:53:37;17.70;;;10.52;;
71726;SDS011;65960;43.502;3.712;2022-12-29T04:56:03;19.05;;;11.00;;
71726;SDS011;65960;43.502;3.712;2022-12-29T04:58:29;23.48;;;11.85;;
71726;SDS011;65960;43.502;3.712;2022-12-29T05:00:55;16.27;;;9.57;;
71726;SDS011;65960;43.502;3.712;2022-12-29T05:03:21;21.95;;;12.07;;
71726;SDS011;65960;43.502;3.712;2022-12-29T05:05:47;17.40;;;10.73;;
71726;SDS011;65960;43.502;3.712;2022-12-29T05:08:13;18.27;;;11.23;;
71726;SDS011;65960;43.502;3.712;2022-12-29T05:10:39;16.27;;;10.30;;
71726;SDS011;65960;43.502;3.712;2022-12-29T05:13:05;21.40;;;11.05;;
71726;SDS011;65960;43.502;3.712;2022-12-29T05:15:31;17.20;;;11.68;;
71726;SDS011;65960;43.502;3.712;2022-12-29T05:17:57;17.75;;;10.82;;
71726;SDS011;65960;43.502;3.712;2022-12-29T05:20:23;19.70;;;11.63;;
71726;SDS011;65960;43.502;3.712;2022-12-29T05:22:49;17.25;;;10.88;;
71726;SDS011;65960;43.502;3.712;2022-12-29T05:25:15;18.00;;;11.05;;
71726;SDS011;65960;43.502;3.712;2022-12-29T05:27:41;19.23;;;11.25;;
71726;SDS011;65960;43.502;3.712;2022-12-29T05:30:08;15.38;;;10.32;;
71726;SDS011;65960;43.502;3.712;2022-12-29T05:32:34;18.95;;;12.40;;
71726;SDS011;65960;43.502;3.712;2022-12-29T05:35:00;17.02;;;11.45;;
71726;SDS011;65960;43.502;3.712;2022-12-29T05:37:26;19.88;;;12.15;;
71726;SDS011;65960;43.502;3.712;2022-12-29T05:39:52;17.38;;;11.48;;
71726;SDS011;65960;43.502;3.712;2022-12-29T05:42:18;17.35;;;11.02;;
71726;SDS011;65960;43.502;3.712;2022-12-29T05:44:44;16.70;;;11.85;;
71726;SDS011;65960;43.502;3.712;2022-12-29T05:47:10;19.42;;;11.50;;
71726;SDS011;65960;43.502;3.712;2022-12-29T05:49:36;19.48;;;11.45;;
71726;SDS011;65960;43.502;3.712;2022-12-29T05:52:02;17.90;;;11.85;;
71726;SDS011;65960;43.502;3.712;2022-12-29T05:54:28;18.00;;;11.20;;
71726;SDS011;65960;43.502;3.712;2022-12-29T05:56:54;14.68;;;9.90;;
71726;SDS011;65960;43.502;3.712;2022-12-29T05:59:20;16.23;;;10.50;;
71726;SDS011;65960;43.502;3.712;2022-12-29T06:01:46;16.23;;;10.65;;
71726;SDS011;65960;43.502;3.712;2022-12-29T06:04:12;18.00;;;11.93;;
71726;SDS011;65960;43.502;3.712;2022-12-29T06:06:38;17.25;;;10.52;;
71726;SDS011;65960;43.502;3.712;2022-12-29T06:09:05;19.00;;;11.05;;
71726;SDS011;65960;43.502;3.712;2022-12-29T06:11:31;18.90;;;11.05;;
71726;SDS011;65960;43.502;3.712;2022-12-29T06:13:56;15.60;;;11.13;;
71726;SDS011;65960;43.502;3.712;2022-12-29T06:16:22;17.05;;;11.50;;
71726;SDS011;65960;43.502;3.712;2022-12-29T06:18:48;19.90;;;12.35;;
71726;SDS011;65960;43.502;3.712;2022-12-29T06:21:14;16.85;;;10.82;;
71726;SDS011;65960;43.502;3.712;2022-12-29T06:23:40;15.25;;;10.85;;
71726;SDS011;65960;43.502;3.712;2022-12-29T06:26:06;19.02;;;13.55;;
71726;SDS011;65960;43.502;3.712;2022-12-29T06:28:32;20.77;;;14.25;;
71726;SDS011;65960;43.502;3.712;2022-12-29T06:30:58;20.25;;;13.68;;
71726;SDS011;65960;43.502;3.712;2022-12-29T06:33:24;15.82;;;10.40;;
71726;SDS011;65960;43.502;3.712;2022-12-29T06:35:51;17.20;;;11.07;;
71726;SDS011;65960;43.502;3.712;2022-12-29T06:38:17;16.40;;;10.68;;
71726;SDS011;65960;43.502;3.712;2022-12-29T06:40:43;16.67;;;10.25;;
71726;SDS011;65960;43.502;3.712;2022-12-29T06:43:10;16.20;;;10.02;;
71726;SDS011;65960;43.502;3.712;2022-12-29T06:45:37;15.98;;;9.70;;
71726;SDS011;65960;43.502;3.712;2022-12-29T06:48:04;17.80;;;9.48;;
71726;SDS011;65960;43.502;3.712;2022-12-29T06:50:31;15.95;;;10.80;;
71726;SDS011;65960;43.502;3.712;2022-12-29T06:52:57;13.95;;;9.20;;
71726;SDS011;65960;43.502;3.712;2022-12-29T06:55:23;16.25;;;9.10;;
71726;SDS011;65960;43.502;3.712;2022-12-29T06:57:49;19.63;;;10.27;;
71726;SDS011;65960;43.502;3.712;2022-12-29T07:00:15;17.90;;;10.05;;
71726;SDS011;65960;43.502;3.712;2022-12-29T07:02:42;16.10;;;9.93;;
71726;SDS011;65960;43.502;3.712;2022-12-29T07:05:08;20.30;;;10.32;;
71726;SDS011;65960;43.502;3.712;2022-12-29T07:07:35;20.35;;;10.63;;
71726;SDS011;65960;43.502;3.712;2022-12-29T07:10:01;21.70;;;11.07;;
71726;SDS011;65960;43.502;3.712;2022-12-29T07:12:27;17.48;;;11.23;;
71726;SDS011;65960;43.502;3.712;2022-12-29T07:14:53;19.23;;;11.07;;
71726;SDS011;65960;43.502;3.712;2022-12-29T07:17:19;18.55;;;11.18;;
71726;SDS011;65960;43.502;3.712;2022-12-29T07:19:45;17.98;;;10.88;;
71726;SDS011;65960;43.502;3.712;2022-12-29T07:22:11;80.32;;;51.95;;
71726;SDS011;65960;43.502;3.712;2022-12-29T07:24:37;66.20;;;41.92;;
71726;SDS011;65960;43.502;3.712;2022-12-29T07:27:03;64.90;;;43.05;;
71726;SDS011;65960;43.502;3.712;2022-12-29T07:29:30;32.70;;;21.95;;
71726;SDS011;65960;43.502;3.712;2022-12-29T07:31:56;20.35;;;13.55;;
71726;SDS011;65960;43.502;3.712;2022-12-29T07:34:22;19.45;;;12.32;;
71726;SDS011;65960;43.502;3.712;2022-12-29T07:36:48;19.38;;;10.45;;
71726;SDS011;65960;43.502;3.712;2022-12-29T07:39:14;18.08;;;9.10;;
71726;SDS011;65960;43.502;3.712;2022-12-29T07:41:39;21.67;;;10.02;;
71726;SDS011;65960;43.502;3.712;2022-12-29T07:44:05;16.05;;;9.75;;
71726;SDS011;65960;43.502;3.712;2022-12-29T07:46:31;17.58;;;10.27;;
71726;SDS011;65960;43.502;3.712;2022-12-29T07:48:58;19.05;;;9.95;;
71726;SDS011;65960;43.502;3.712;2022-12-29T07:51:24;23.27;;;10.32;;
71726;SDS011;65960;43.502;3.712;2022-12-29T07:53:50;17.30;;;10.50;;
71726;SDS011;65960;43.502;3.712;2022-12-29T07:56:16;20.85;;;11.43;;
71726;SDS011;65960;43.502;3.712;2022-12-29T07:58:42;18.25;;;10.18;;
71726;SDS011;65960;43.502;3.712;2022-12-29T08:01:08;17.20;;;11.30;;
71726;SDS011;65960;43.502;3.712;2022-12-29T08:03:34;16.35;;;11.60;;
71726;SDS011;65960;43.502;3.712;2022-12-29T08:06:01;17.90;;;10.45;;
71726;SDS011;65960;43.502;3.712;2022-12-29T08:08:27;14.95;;;10.10;;
71726;SDS011;65960;43.502;3.712;2022-12-29T08:10:53;19.02;;;10.23;;
71726;SDS011;65960;43.502;3.712;2022-12-29T08:13:19;18.25;;;10.60;;
71726;SDS011;65960;43.502;3.712;2022-12-29T08:15:45;20.38;;;11.02;;
71726;SDS011;65960;43.502;3.712;2022-12-29T08:18:11;17.67;;;10.18;;
71726;SDS011;65960;43.502;3.712;2022-12-29T08:20:38;18.13;;;10.40;;
71726;SDS011;65960;43.502;3.712;2022-12-29T08:23:04;18.48;;;10.32;;
71726;SDS011;65960;43.502;3.712;2022-12-29T08:25:30;22.55;;;11.80;;
71726;SDS011;65960;43.502;3.712;2022-12-29T08:27:56;23.00;;;14.35;;
71726;SDS011;65960;43.502;3.712;2022-12-29T08:30:22;20.15;;;11.95;;
71726;SDS011;65960;43.502;3.712;2022-12-29T08:32:48;18.13;;;10.02;;
71726;SDS011;65960;43.502;3.712;2022-12-29T08:35:14;17.77;;;10.95;;
71726;SDS011;65960;43.502;3.712;2022-12-29T08:37:40;17.50;;;10.70;;
71726;SDS011;65960;43.502;3.712;2022-12-29T08:40:06;15.48;;;10.60;;
71726;SDS011;65960;43.502;3.712;2022-12-29T08:42:33;20.42;;;10.73;;
71726;SDS011;65960;43.502;3.712;2022-12-29T08:44:59;20.40;;;10.65;;
71726;SDS011;65960;43.502;3.712;2022-12-29T08:47:25;21.83;;;11.05;;
71726;SDS011;65960;43.502;3.712;2022-12-29T08:49:52;22.73;;;14.05;;
71726;SDS011;65960;43.502;3.712;2022-12-29T08:52:18;26.30;;;15.27;;
71726;SDS011;65960;43.502;3.712;2022-12-29T08:54:44;21.83;;;12.85;;
71726;SDS011;65960;43.502;3.712;2022-12-29T08:57:10;18.17;;;11.43;;
71726;SDS011;65960;43.502;3.712;2022-12-29T08:59:36;17.27;;;10.15;;
71726;SDS011;65960;43.502;3.712;2022-12-29T09:02:02;20.55;;;9.82;;
71726;SDS011;65960;43.502;3.712;2022-12-29T09:04:28;18.25;;;9.75;;
71726;SDS011;65960;43.502;3.712;2022-12-29T09:06:54;20.48;;;10.23;;
71726;SDS011;65960;43.502;3.712;2022-12-29T09:09:20;18.55;;;12.23;;
71726;SDS011;65960;43.502;3.712;2022-12-29T09:11:46;23.65;;;12.45;;
71726;SDS011;65960;43.502;3.712;2022-12-29T09:14:12;19.02;;;11.35;;
71726;SDS011;65960;43.502;3.712;2022-12-29T09:16:38;23.38;;;12.40;;
71726;SDS011;65960;43.502;3.712;2022-12-29T09:19:23;17.77;;;9.45;;
71726;SDS011;65960;43.502;3.712;2022-12-29T09:21:49;19.40;;;10.43;;
71726;SDS011;65960;43.502;3.712;2022-12-29T09:24:15;17.02;;;9.65;;
71726;SDS011;65960;43.502;3.712;2022-12-29T09:26:41;16.65;;;9.75;;
71726;SDS011;65960;43.502;3.712;2022-12-29T09:29:07;16.05;;;9.95;;
71726;SDS011;65960;43.502;3.712;2022-12-29T09:31:33;15.57;;;9.15;;
71726;SDS011;65960;43.502;3.712;2022-12-29T09:33:59;20.55;;;10.68;;
71726;SDS011;65960;43.502;3.712;2022-12-29T09:36:25;17.90;;;11.27;;
71726;SDS011;65960;43.502;3.712;2022-12-29T09:38:52;19.88;;;11.40;;
71726;SDS011;65960;43.502;3.712;2022-12-29T09:41:34;21.15;;;12.02;;
71726;SDS011;65960;43.502;3.712;2022-12-29T09:46:44;20.80;;;12.02;;
71726;SDS011;65960;43.502;3.712;2022-12-29T09:51:48;15.70;;;9.05;;
71726;SDS011;65960;43.502;3.712;2022-12-29T09:56:56;15.90;;;10.02;;
71726;SDS011;65960;43.502;3.712;2022-12-29T09:59:24;17.13;;;9.68;;
71726;SDS011;65960;43.502;3.712;2022-12-29T10:02:16;20.83;;;10.15;;
71726;SDS011;65960;43.502;3.712;2022-12-29T10:04:50;18.88;;;10.52;;
71726;SDS011;65960;43.502;3.712;2022-12-29T10:09:54;34.60;;;19.65;;
71726;SDS011;65960;43.502;3.712;2022-12-29T10:25:41;17.92;;;9.68;;
71726;SDS011;65960;43.502;3.712;2022-12-29T10:28:15;17.35;;;7.82;;
71726;SDS011;65960;43.502;3.712;2022-12-29T10:30:42;14.85;;;6.78;;
71726;SDS011;65960;43.502;3.712;2022-12-29T10:33:11;15.35;;;7.65;;
71726;SDS011;65960;43.502;3.712;2022-12-29T10:35:43;17.13;;;8.23;;
71726;SDS011;65960;43.502;3.712;2022-12-29T10:38:27;20.85;;;9.98;;
71726;SDS011;65960;43.502;3.712;2022-12-29T10:41:05;19.70;;;10.85;;
71726;SDS011;65960;43.502;3.712;2022-12-29T10:43:42;13.32;;;8.30;;
71726;SDS011;65960;43.502;3.712;2022-12-29T10:46:10;16.35;;;8.35;;
71726;SDS011;65960;43.502;3.712;2022-12-29T10:48:37;17.27;;;9.15;;
71726;SDS011;65960;43.502;3.712;2022-12-29T10:51:04;16.30;;;9.38;;
71726;SDS011;65960;43.502;3.712;2022-12-29T10:53:41;16.48;;;9.38;;
71726;SDS011;65960;43.502;3.712;2022-12-29T10:56:14;13.23;;;7.95;;
71726;SDS011;65960;43.502;3.712;2022-12-29T10:58:40;16.13;;;7.93;;
71726;SDS011;65960;43.502;3.712;2022-12-29T11:01:07;15.10;;;7.40;;
71726;SDS011;65960;43.502;3.712;2022-12-29T11:03:40;13.70;;;7.07;;
71726;SDS011;65960;43.502;3.712;2022-12-29T11:06:25;15.57;;;8.85;;
71726;SDS011;65960;43.502;3.712;2022-12-29T11:08:53;17.92;;;9.65;;
71726;SDS011;65960;43.502;3.712;2022-12-29T11:11:27;22.50;;;12.52;;
71726;SDS011;65960;43.502;3.712;2022-12-29T11:13:58;27.60;;;15.02;;
71726;SDS011;65960;43.502;3.712;2022-12-29T11:16:31;18.70;;;11.32;;
71726;SDS011;65960;43.502;3.712;2022-12-29T11:18:58;20.27;;;10.57;;
71726;SDS011;65960;43.502;3.712;2022-12-29T11:23:57;19.70;;;9.40;;
71726;SDS011;65960;43.502;3.712;2022-12-29T11:26:29;15.30;;;8.38;;
71726;SDS011;65960;43.502;3.712;2022-12-29T11:31:30;19.88;;;11.55;;
71726;SDS011;65960;43.502;3.712;2022-12-29T11:33:56;23.98;;;12.27;;
71726;SDS011;65960;43.502;3.712;2022-12-29T11:36:23;17.35;;;9.40;;
71726;SDS011;65960;43.502;3.712;2022-12-29T11:38:55;19.73;;;9.05;;
71726;SDS011;65960;43.502;3.712;2022-12-29T11:41:25;20.40;;;8.70;;
71726;SDS011;65960;43.502;3.712;2022-12-29T11:44:01;17.77;;;9.00;;
71726;SDS011;65960;43.502;3.712;2022-12-29T11:46:30;18.85;;;9.85;;
71726;SDS011;65960;43.502;3.712;2022-12-29T11:48:57;14.77;;;8.60;;
71726;SDS011;65960;43.502;3.712;2022-12-29T11:51:26;18.20;;;9.75;;
71726;SDS011;65960;43.502;3.712;2022-12-29T11:53:56;18.48;;;11.60;;
71726;SDS011;65960;43.502;3.712;2022-12-29T11:56:32;24.67;;;10.50;;
71726;SDS011;65960;43.502;3.712;2022-12-29T11:59:10;17.15;;;8.60;;
71726;SDS011;65960;43.502;3.712;2022-12-29T12:01:44;16.25;;;9.75;;
71726;SDS011;65960;43.502;3.712;2022-12-29T12:04:15;18.85;;;9.57;;
71726;SDS011;65960;43.502;3.712;2022-12-29T12:06:43;17.73;;;9.43;;
71726;SDS011;65960;43.502;3.712;2022-12-29T12:09:25;17.55;;;9.38;;
71726;SDS011;65960;43.502;3.712;2022-12-29T12:11:53;16.63;;;9.07;;
71726;SDS011;65960;43.502;3.712;2022-12-29T12:16:48;20.60;;;9.45;;
71726;SDS011;65960;43.502;3.712;2022-12-29T12:19:38;17.27;;;9.25;;
71726;SDS011;65960;43.502;3.712;2022-12-29T12:22:17;18.75;;;9.60;;
71726;SDS011;65960;43.502;3.712;2022-12-29T12:24:49;19.85;;;9.52;;
71726;SDS011;65960;43.502;3.712;2022-12-29T12:27:24;20.73;;;10.57;;
71726;SDS011;65960;43.502;3.712;2022-12-29T12:29:59;18.02;;;10.05;;
71726;SDS011;65960;43.502;3.712;2022-12-29T12:34:56;20.13;;;11.48;;
71726;SDS011;65960;43.502;3.712;2022-12-29T12:37:32;17.67;;;9.80;;
71726;SDS011;65960;43.502;3.712;2022-12-29T12:50:32;15.85;;;8.65;;
71726;SDS011;65960;43.502;3.712;2022-12-29T13:03:22;17.30;;;7.95;;
71726;SDS011;65960;43.502;3.712;2022-12-29T13:08:46;15.02;;;7.75;;
71726;SDS011;65960;43.502;3.712;2022-12-29T13:24:44;13.55;;;7.15;;
71726;SDS011;65960;43.502;3.712;2022-12-29T13:27:19;16.75;;;8.85;;
71726;SDS011;65960;43.502;3.712;2022-12-29T13:35:54;15.88;;;9.63;;
71726;SDS011;65960;43.502;3.712;2022-12-29T13:38:17;16.58;;;9.10;;
71726;SDS011;65960;43.502;3.712;2022-12-29T13:41:02;22.95;;;11.02;;
71726;SDS011;65960;43.502;3.712;2022-12-29T13:43:32;16.50;;;9.95;;
71726;SDS011;65960;43.502;3.712;2022-12-29T13:46:04;18.80;;;10.27;;
71726;SDS011;65960;43.502;3.712;2022-12-29T13:48:53;20.35;;;11.55;;
71726;SDS011;65960;43.502;3.712;2022-12-29T13:51:24;15.73;;;9.70;;
71726;SDS011;65960;43.502;3.712;2022-12-29T13:56:42;18.00;;;10.10;;
71726;SDS011;65960;43.502;3.712;2022-12-29T14:07:46;17.25;;;11.43;;
71726;SDS011;65960;43.502;3.712;2022-12-29T14:13:06;20.25;;;10.02;;
71726;SDS011;65960;43.502;3.712;2022-12-29T14:15:44;18.90;;;10.73;;
71726;SDS011;65960;43.502;3.712;2022-12-29T14:18:23;19.10;;;10.88;;
71726;SDS011;65960;43.502;3.712;2022-12-29T14:20:58;17.65;;;10.05;;
71726;SDS011;65960;43.502;3.712;2022-12-29T14:28:37;18.02;;;10.93;;
71726;SDS011;65960;43.502;3.712;2022-12-29T14:31:05;16.10;;;9.98;;
71726;SDS011;65960;43.502;3.712;2022-12-29T14:36:37;18.52;;;10.30;;
71726;SDS011;65960;43.502;3.712;2022-12-29T14:39:04;18.30;;;9.77;;
71726;SDS011;65960;43.502;3.712;2022-12-29T14:41:58;18.42;;;10.70;;
71726;SDS011;65960;43.502;3.712;2022-12-29T14:44:25;26.83;;;19.65;;
71726;SDS011;65960;43.502;3.712;2022-12-29T14:49:22;24.73;;;15.38;;
71726;SDS011;65960;43.502;3.712;2022-12-29T14:54:45;20.75;;;13.65;;
71726;SDS011;65960;43.502;3.712;2022-12-29T14:57:28;20.00;;;12.57;;
71726;SDS011;65960;43.502;3.712;2022-12-29T15:00:08;22.40;;;12.70;;
71726;SDS011;65960;43.502;3.712;2022-12-29T15:02:44;18.13;;;11.32;;
71726;SDS011;65960;43.502;3.712;2022-12-29T15:05:22;20.88;;;12.45;;
71726;SDS011;65960;43.502;3.712;2022-12-29T15:07:55;20.85;;;11.80;;
71726;SDS011;65960;43.502;3.712;2022-12-29T15:10:22;26.80;;;19.13;;
71726;SDS011;65960;43.502;3.712;2022-12-29T15:12:54;20.38;;;11.82;;
71726;SDS011;65960;43.502;3.712;2022-12-29T15:17:51;18.90;;;9.82;;
71726;SDS011;65960;43.502;3.712;2022-12-29T15:20:26;17.63;;;10.13;;
71726;SDS011;65960;43.502;3.712;2022-12-29T15:22:54;18.70;;;9.93;;
71726;SDS011;65960;43.502;3.712;2022-12-29T15:25:22;21.33;;;11.73;;
71726;SDS011;65960;43.502;3.712;2022-12-29T15:27:50;20.88;;;11.60;;
71726;SDS011;65960;43.502;3.712;2022-12-29T15:30:25;17.95;;;11.00;;
71726;SDS011;65960;43.502;3.712;2022-12-29T15:32:51;19.00;;;12.68;;
71726;SDS011;65960;43.502;3.712;2022-12-29T15:35:36;23.40;;;14.27;;
71726;SDS011;65960;43.502;3.712;2022-12-29T15:38:15;22.13;;;15.60;;
71726;SDS011;65960;43.502;3.712;2022-12-29T15:40:45;20.33;;;15.02;;
71726;SDS011;65960;43.502;3.712;2022-12-29T15:46:02;23.75;;;12.90;;
71726;SDS011;65960;43.502;3.712;2022-12-29T15:48:28;22.98;;;13.43;;
71726;SDS011;65960;43.502;3.712;2022-12-29T15:50:55;21.98;;;14.50;;
71726;SDS011;65960;43.502;3.712;2022-12-29T15:53:26;24.30;;;15.40;;
71726;SDS011;65960;43.502;3.712;2022-12-29T15:55:58;22.92;;;13.75;;
71726;SDS011;65960;43.502;3.712;2022-12-29T15:58:39;20.77;;;13.90;;
71726;SDS011;65960;43.502;3.712;2022-12-29T16:01:16;49.80;;;39.22;;
71726;SDS011;65960;43.502;3.712;2022-12-29T16:03:44;34.03;;;20.27;;
71726;SDS011;65960;43.502;3.712;2022-12-29T16:06:25;43.42;;;34.00;;
71726;SDS011;65960;43.502;3.712;2022-12-29T16:09:15;36.80;;;27.40;;
71726;SDS011;65960;43.502;3.712;2022-12-29T16:11:51;29.55;;;21.40;;
71726;SDS011;65960;43.502;3.712;2022-12-29T16:14:21;27.15;;;22.25;;
71726;SDS011;65960;43.502;3.712;2022-12-29T16:17:03;47.50;;;31.45;;
71726;SDS011;65960;43.502;3.712;2022-12-29T16:19:31;57.42;;;37.10;;
71726;SDS011;65960;43.502;3.712;2022-12-29T16:22:03;63.15;;;40.60;;
71726;SDS011;65960;43.502;3.712;2022-12-29T16:24:36;40.58;;;27.70;;
71726;SDS011;65960;43.502;3.712;2022-12-29T16:27:25;30.30;;;20.17;;
71726;SDS011;65960;43.502;3.712;2022-12-29T16:29:57;28.98;;;19.17;;
71726;SDS011;65960;43.502;3.712;2022-12-29T16:32:33;26.23;;;17.48;;
71726;SDS011;65960;43.502;3.712;2022-12-29T16:35:45;25.83;;;17.90;;
71726;SDS011;65960;43.502;3.712;2022-12-29T16:40:59;24.08;;;16.08;;
71726;SDS011;65960;43.502;3.712;2022-12-29T16:43:30;35.10;;;23.33;;
71726;SDS011;65960;43.502;3.712;2022-12-29T16:46:55;38.42;;;27.75;;
71726;SDS011;65960;43.502;3.712;2022-12-29T16:48:55;40.53;;;29.05;;
71726;SDS011;65960;43.502;3.712;2022-12-29T16:51:29;43.03;;;33.08;;
71726;SDS011;65960;43.502;3.712;2022-12-29T16:53:58;54.40;;;43.55;;
71726;SDS011;65960;43.502;3.712;2022-12-29T16:56:28;35.03;;;25.80;;
71726;SDS011;65960;43.502;3.712;2022-12-29T16:59:01;37.00;;;23.77;;
71726;SDS011;65960;43.502;3.712;2022-12-29T17:01:27;34.10;;;25.92;;
71726;SDS011;65960;43.502;3.712;2022-12-29T17:03:56;35.78;;;26.73;;
71726;SDS011;65960;43.502;3.712;2022-12-29T17:06:25;34.40;;;24.35;;